sensor_id;sensor_type;location;lat;lon;timestamp;P1;durP1;ratioP1;P2;durP2;ratioP2
47219;SDS011;32961;51.936;4.788;2023-04-03T00:01:10;3.65;;;1.63;;
47219;SDS011;32961;51.936;4.788;2023-04-03T00:03:38;2.75;;;1.40;;
47219;SDS011;32961;51.936;4.788;2023-04-03T00:06:07;3.85;;;1.75;;
47219;SDS011;32961;51.936;4.788;2023-04-03T00:08:37;5.57;;;2.05;;
47219;SDS011;32961;51.936;4.788;2023-04-03T00:11:06;4.35;;;1.80;;
47219;SDS011;32961;51.936;4.788;2023-04-03T00:13:35;4.18;;;1.90;;
47219;SDS011;32961;51.936;4.788;2023-04-03T00:16:06;4.93;;;1.85;;
47219;SDS011;32961;51.936;4.788;2023-04-03T00:18:34;3.17;;;1.45;;
47219;SDS011;32961;51.936;4.788;2023-04-03T00:21:02;4.35;;;2.00;;
47219;SDS011;32961;51.936;4.788;2023-04-03T00:23:31;5.53;;;1.95;;
47219;SDS011;32961;51.936;4.788;2023-04-03T00:25:59;4.15;;;1.67;;
47219;SDS011;32961;51.936;4.788;2023-04-03T00:28:27;4.72;;;1.83;;
47219;SDS011;32961;51.936;4.788;2023-04-03T00:30:55;3.30;;;1.80;;
47219;SDS011;32961;51.936;4.788;2023-04-03T00:33:24;4.50;;;1.77;;
47219;SDS011;32961;51.936;4.788;2023-04-03T00:35:52;2.97;;;1.52;;
47219;SDS011;32961;51.936;4.788;2023-04-03T00:38:20;6.47;;;1.83;;
47219;SDS011;32961;51.936;4.788;2023-04-03T00:40:48;6.03;;;1.80;;
47219;SDS011;32961;51.936;4.788;2023-04-03T00:43:17;6.18;;;1.80;;
47219;SDS011;32961;51.936;4.788;2023-04-03T00:45:48;4.05;;;1.60;;
47219;SDS011;32961;51.936;4.788;2023-04-03T00:48:18;3.25;;;1.60;;
47219;SDS011;32961;51.936;4.788;2023-04-03T00:50:49;7.43;;;1.70;;
47219;SDS011;32961;51.936;4.788;2023-04-03T00:53:21;4.45;;;1.80;;
47219;SDS011;32961;51.936;4.788;2023-04-03T00:55:52;3.83;;;1.80;;
47219;SDS011;32961;51.936;4.788;2023-04-03T00:58:24;3.75;;;1.73;;
47219;SDS011;32961;51.936;4.788;2023-04-03T01:11:15;2.05;;;1.40;;
47219;SDS011;32961;51.936;4.788;2023-04-03T01:13:43;5.00;;;2.08;;
47219;SDS011;32961;51.936;4.788;2023-04-03T01:16:11;4.32;;;1.85;;
47219;SDS011;32961;51.936;4.788;2023-04-03T01:18:39;8.00;;;2.85;;
47219;SDS011;32961;51.936;4.788;2023-04-03T01:24:25;3.25;;;1.75;;
47219;SDS011;32961;51.936;4.788;2023-04-03T01:27:00;4.07;;;1.70;;
47219;SDS011;32961;51.936;4.788;2023-04-03T01:29:29;3.83;;;1.60;;
47219;SDS011;32961;51.936;4.788;2023-04-03T01:31:59;2.83;;;1.42;;
47219;SDS011;32961;51.936;4.788;2023-04-03T01:34:28;2.65;;;1.58;;
47219;SDS011;32961;51.936;4.788;2023-04-03T01:36:57;3.78;;;1.70;;
47219;SDS011;32961;51.936;4.788;2023-04-03T01:39:25;5.57;;;1.67;;
47219;SDS011;32961;51.936;4.788;2023-04-03T01:41:53;4.28;;;1.70;;
47219;SDS011;32961;51.936;4.788;2023-04-03T01:44:20;3.35;;;1.67;;
47219;SDS011;32961;51.936;4.788;2023-04-03T01:46:48;2.95;;;1.50;;
47219;SDS011;32961;51.936;4.788;2023-04-03T01:49:17;3.67;;;1.60;;
47219;SDS011;32961;51.936;4.788;2023-04-03T01:51:45;9.18;;;2.40;;
47219;SDS011;32961;51.936;4.788;2023-04-03T01:54:13;2.22;;;1.60;;
47219;SDS011;32961;51.936;4.788;2023-04-03T01:56:41;4.88;;;1.50;;
47219;SDS011;32961;51.936;4.788;2023-04-03T01:59:08;6.28;;;1.80;;
47219;SDS011;32961;51.936;4.788;2023-04-03T02:01:36;3.30;;;1.45;;
47219;SDS011;32961;51.936;4.788;2023-04-03T02:04:04;3.33;;;1.70;;
47219;SDS011;32961;51.936;4.788;2023-04-03T02:06:34;2.97;;;1.65;;
47219;SDS011;32961;51.936;4.788;2023-04-03T02:09:02;5.20;;;1.70;;
47219;SDS011;32961;51.936;4.788;2023-04-03T02:11:30;3.45;;;2.05;;
47219;SDS011;32961;51.936;4.788;2023-04-03T02:13:58;4.15;;;1.90;;
47219;SDS011;32961;51.936;4.788;2023-04-03T02:16:25;2.25;;;1.38;;
47219;SDS011;32961;51.936;4.788;2023-04-03T02:18:55;4.57;;;2.15;;
47219;SDS011;32961;51.936;4.788;2023-04-03T02:21:23;3.63;;;1.83;;
47219;SDS011;32961;51.936;4.788;2023-04-03T02:23:52;3.72;;;2.05;;
47219;SDS011;32961;51.936;4.788;2023-04-03T02:26:20;4.15;;;1.77;;
47219;SDS011;32961;51.936;4.788;2023-04-03T02:28:48;3.80;;;1.40;;
47219;SDS011;32961;51.936;4.788;2023-04-03T02:31:17;2.88;;;1.65;;
47219;SDS011;32961;51.936;4.788;2023-04-03T02:33:45;4.03;;;1.85;;
47219;SDS011;32961;51.936;4.788;2023-04-03T02:36:13;2.83;;;1.70;;
47219;SDS011;32961;51.936;4.788;2023-04-03T02:38:41;4.88;;;1.95;;
47219;SDS011;32961;51.936;4.788;2023-04-03T02:41:11;3.58;;;1.48;;
47219;SDS011;32961;51.936;4.788;2023-04-03T02:43:39;3.88;;;1.67;;
47219;SDS011;32961;51.936;4.788;2023-04-03T02:46:07;4.55;;;1.50;;
47219;SDS011;32961;51.936;4.788;2023-04-03T02:48:35;5.32;;;1.65;;
47219;SDS011;32961;51.936;4.788;2023-04-03T02:51:04;4.72;;;1.90;;
47219;SDS011;32961;51.936;4.788;2023-04-03T02:53:32;4.85;;;1.90;;
47219;SDS011;32961;51.936;4.788;2023-04-03T02:55:59;5.22;;;1.40;;
47219;SDS011;32961;51.936;4.788;2023-04-03T02:58:29;5.95;;;2.00;;
47219;SDS011;32961;51.936;4.788;2023-04-03T03:00:56;5.55;;;2.35;;
47219;SDS011;32961;51.936;4.788;2023-04-03T03:03:24;5.85;;;2.40;;
47219;SDS011;32961;51.936;4.788;2023-04-03T03:06:00;3.83;;;1.63;;
47219;SDS011;32961;51.936;4.788;2023-04-03T03:08:28;5.35;;;1.67;;
47219;SDS011;32961;51.936;4.788;2023-04-03T03:10:56;3.42;;;1.65;;
47219;SDS011;32961;51.936;4.788;2023-04-03T03:13:24;5.03;;;1.92;;
47219;SDS011;32961;51.936;4.788;2023-04-03T03:15:53;5.63;;;2.10;;
47219;SDS011;32961;51.936;4.788;2023-04-03T03:18:22;7.97;;;2.20;;
47219;SDS011;32961;51.936;4.788;2023-04-03T03:20:50;7.43;;;2.72;;
47219;SDS011;32961;51.936;4.788;2023-04-03T03:23:19;3.20;;;1.70;;
47219;SDS011;32961;51.936;4.788;2023-04-03T03:25:48;5.70;;;1.85;;
47219;SDS011;32961;51.936;4.788;2023-04-03T03:28:15;4.82;;;1.85;;
47219;SDS011;32961;51.936;4.788;2023-04-03T03:30:43;6.85;;;2.22;;
47219;SDS011;32961;51.936;4.788;2023-04-03T03:33:12;4.25;;;1.90;;
47219;SDS011;32961;51.936;4.788;2023-04-03T03:35:40;3.63;;;2.03;;
47219;SDS011;32961;51.936;4.788;2023-04-03T03:38:08;5.63;;;1.70;;
47219;SDS011;32961;51.936;4.788;2023-04-03T03:40:36;5.15;;;2.40;;
47219;SDS011;32961;51.936;4.788;2023-04-03T03:43:04;4.47;;;1.80;;
47219;SDS011;32961;51.936;4.788;2023-04-03T03:45:31;4.18;;;1.88;;
47219;SDS011;32961;51.936;4.788;2023-04-03T03:48:00;6.43;;;2.40;;
47219;SDS011;32961;51.936;4.788;2023-04-03T03:50:29;3.45;;;2.00;;
47219;SDS011;32961;51.936;4.788;2023-04-03T03:52:57;5.07;;;1.67;;
47219;SDS011;32961;51.936;4.788;2023-04-03T03:55:24;5.60;;;2.08;;
47219;SDS011;32961;51.936;4.788;2023-04-03T03:57:52;3.28;;;2.00;;
47219;SDS011;32961;51.936;4.788;2023-04-03T04:00:20;5.78;;;2.03;;
47219;SDS011;32961;51.936;4.788;2023-04-03T04:02:48;4.10;;;1.90;;
47219;SDS011;32961;51.936;4.788;2023-04-03T04:05:16;4.78;;;2.38;;
47219;SDS011;32961;51.936;4.788;2023-04-03T04:07:45;6.25;;;2.25;;
47219;SDS011;32961;51.936;4.788;2023-04-03T04:10:13;6.28;;;2.30;;
47219;SDS011;32961;51.936;4.788;2023-04-03T04:12:41;4.35;;;2.08;;
47219;SDS011;32961;51.936;4.788;2023-04-03T04:15:09;6.07;;;2.10;;
47219;SDS011;32961;51.936;4.788;2023-04-03T04:17:37;4.72;;;2.13;;
47219;SDS011;32961;51.936;4.788;2023-04-03T04:20:05;4.60;;;1.88;;
47219;SDS011;32961;51.936;4.788;2023-04-03T04:22:34;5.68;;;2.20;;
47219;SDS011;32961;51.936;4.788;2023-04-03T04:25:04;4.65;;;2.08;;
47219;SDS011;32961;51.936;4.788;2023-04-03T04:27:32;6.13;;;2.33;;
47219;SDS011;32961;51.936;4.788;2023-04-03T04:30:00;5.65;;;2.20;;
47219;SDS011;32961;51.936;4.788;2023-04-03T04:32:28;5.43;;;1.95;;
47219;SDS011;32961;51.936;4.788;2023-04-03T04:34:55;6.05;;;2.20;;
47219;SDS011;32961;51.936;4.788;2023-04-03T04:37:23;6.53;;;2.42;;
47219;SDS011;32961;51.936;4.788;2023-04-03T04:39:51;4.43;;;1.95;;
47219;SDS011;32961;51.936;4.788;2023-04-03T04:42:20;4.68;;;2.05;;
47219;SDS011;32961;51.936;4.788;2023-04-03T04:44:48;4.63;;;1.88;;
47219;SDS011;32961;51.936;4.788;2023-04-03T04:47:16;4.97;;;1.95;;
47219;SDS011;32961;51.936;4.788;2023-04-03T04:49:44;4.82;;;1.83;;
47219;SDS011;32961;51.936;4.788;2023-04-03T04:52:13;6.35;;;2.00;;
47219;SDS011;32961;51.936;4.788;2023-04-03T04:54:41;4.25;;;2.17;;
47219;SDS011;32961;51.936;4.788;2023-04-03T04:57:09;12.20;;;2.58;;
47219;SDS011;32961;51.936;4.788;2023-04-03T04:59:38;7.93;;;2.95;;
47219;SDS011;32961;51.936;4.788;2023-04-03T05:02:06;7.57;;;2.00;;
47219;SDS011;32961;51.936;4.788;2023-04-03T05:04:34;6.15;;;2.25;;
47219;SDS011;32961;51.936;4.788;2023-04-03T05:07:02;8.50;;;2.75;;
47219;SDS011;32961;51.936;4.788;2023-04-03T05:09:30;5.07;;;2.15;;
47219;SDS011;32961;51.936;4.788;2023-04-03T05:11:57;9.48;;;2.40;;
47219;SDS011;32961;51.936;4.788;2023-04-03T05:14:25;3.47;;;2.15;;
47219;SDS011;32961;51.936;4.788;2023-04-03T05:16:54;4.50;;;1.75;;
47219;SDS011;32961;51.936;4.788;2023-04-03T05:19:23;3.72;;;2.03;;
47219;SDS011;32961;51.936;4.788;2023-04-03T05:21:51;9.35;;;2.55;;
47219;SDS011;32961;51.936;4.788;2023-04-03T05:24:19;6.40;;;2.33;;
47219;SDS011;32961;51.936;4.788;2023-04-03T05:26:47;3.88;;;2.28;;
47219;SDS011;32961;51.936;4.788;2023-04-03T05:29:15;4.53;;;2.20;;
47219;SDS011;32961;51.936;4.788;2023-04-03T05:31:43;7.85;;;2.30;;
47219;SDS011;32961;51.936;4.788;2023-04-03T05:34:12;5.45;;;2.50;;
47219;SDS011;32961;51.936;4.788;2023-04-03T05:36:40;8.32;;;2.38;;
47219;SDS011;32961;51.936;4.788;2023-04-03T05:39:08;5.50;;;1.98;;
47219;SDS011;32961;51.936;4.788;2023-04-03T05:41:36;5.18;;;1.88;;
47219;SDS011;32961;51.936;4.788;2023-04-03T05:44:04;5.20;;;2.20;;
47219;SDS011;32961;51.936;4.788;2023-04-03T05:46:35;6.93;;;2.45;;
47219;SDS011;32961;51.936;4.788;2023-04-03T05:49:02;9.40;;;2.35;;
47219;SDS011;32961;51.936;4.788;2023-04-03T05:51:33;5.72;;;2.40;;
47219;SDS011;32961;51.936;4.788;2023-04-03T05:54:06;8.05;;;2.47;;
47219;SDS011;32961;51.936;4.788;2023-04-03T05:56:37;6.85;;;2.40;;
47219;SDS011;32961;51.936;4.788;2023-04-03T05:59:05;5.07;;;2.38;;
47219;SDS011;32961;51.936;4.788;2023-04-03T06:01:33;6.88;;;2.42;;
47219;SDS011;32961;51.936;4.788;2023-04-03T06:04:01;5.80;;;2.20;;
47219;SDS011;32961;51.936;4.788;2023-04-03T06:06:43;5.65;;;2.78;;
47219;SDS011;32961;51.936;4.788;2023-04-03T06:09:12;3.95;;;2.05;;
47219;SDS011;32961;51.936;4.788;2023-04-03T06:11:41;8.18;;;2.15;;
47219;SDS011;32961;51.936;4.788;2023-04-03T06:14:09;6.95;;;2.58;;
47219;SDS011;32961;51.936;4.788;2023-04-03T06:16:37;7.97;;;2.33;;
47219;SDS011;32961;51.936;4.788;2023-04-03T06:19:05;6.82;;;2.28;;
47219;SDS011;32961;51.936;4.788;2023-04-03T06:21:33;8.35;;;3.38;;
47219;SDS011;32961;51.936;4.788;2023-04-03T06:24:03;9.70;;;2.50;;
47219;SDS011;32961;51.936;4.788;2023-04-03T06:26:32;15.00;;;2.35;;
47219;SDS011;32961;51.936;4.788;2023-04-03T06:29:00;5.32;;;2.03;;
47219;SDS011;32961;51.936;4.788;2023-04-03T06:31:28;8.70;;;2.70;;
47219;SDS011;32961;51.936;4.788;2023-04-03T06:33:56;4.88;;;2.20;;
47219;SDS011;32961;51.936;4.788;2023-04-03T06:36:24;6.82;;;2.35;;
47219;SDS011;32961;51.936;4.788;2023-04-03T06:38:52;11.48;;;2.30;;
47219;SDS011;32961;51.936;4.788;2023-04-03T06:41:21;7.18;;;2.67;;
47219;SDS011;32961;51.936;4.788;2023-04-03T06:43:49;10.88;;;2.58;;
47219;SDS011;32961;51.936;4.788;2023-04-03T06:46:17;6.22;;;2.72;;
47219;SDS011;32961;51.936;4.788;2023-04-03T06:48:48;5.65;;;2.28;;
47219;SDS011;32961;51.936;4.788;2023-04-03T06:51:17;7.43;;;2.60;;
47219;SDS011;32961;51.936;4.788;2023-04-03T06:53:46;6.50;;;2.38;;
47219;SDS011;32961;51.936;4.788;2023-04-03T06:56:14;8.48;;;2.00;;
47219;SDS011;32961;51.936;4.788;2023-04-03T06:58:44;6.00;;;2.20;;
47219;SDS011;32961;51.936;4.788;2023-04-03T07:01:13;7.88;;;2.00;;
47219;SDS011;32961;51.936;4.788;2023-04-03T07:03:42;6.70;;;2.05;;
47219;SDS011;32961;51.936;4.788;2023-04-03T07:06:11;5.30;;;2.08;;
47219;SDS011;32961;51.936;4.788;2023-04-03T07:08:40;7.07;;;2.10;;
47219;SDS011;32961;51.936;4.788;2023-04-03T07:11:08;7.95;;;2.75;;
47219;SDS011;32961;51.936;4.788;2023-04-03T07:13:36;6.38;;;2.10;;
47219;SDS011;32961;51.936;4.788;2023-04-03T07:16:07;8.13;;;2.03;;
47219;SDS011;32961;51.936;4.788;2023-04-03T07:18:35;6.43;;;2.10;;
47219;SDS011;32961;51.936;4.788;2023-04-03T07:21:03;8.68;;;2.47;;
47219;SDS011;32961;51.936;4.788;2023-04-03T07:23:32;4.07;;;1.92;;
47219;SDS011;32961;51.936;4.788;2023-04-03T07:26:00;5.72;;;1.80;;
47219;SDS011;32961;51.936;4.788;2023-04-03T07:28:28;8.82;;;2.00;;
47219;SDS011;32961;51.936;4.788;2023-04-03T07:30:59;9.68;;;2.45;;
47219;SDS011;32961;51.936;4.788;2023-04-03T07:33:30;8.48;;;2.38;;
47219;SDS011;32961;51.936;4.788;2023-04-03T07:35:58;8.77;;;2.28;;
47219;SDS011;32961;51.936;4.788;2023-04-03T07:38:26;5.90;;;2.30;;
47219;SDS011;32961;51.936;4.788;2023-04-03T07:40:55;6.80;;;2.28;;
47219;SDS011;32961;51.936;4.788;2023-04-03T07:43:23;11.27;;;2.25;;
47219;SDS011;32961;51.936;4.788;2023-04-03T07:45:51;9.70;;;2.28;;
47219;SDS011;32961;51.936;4.788;2023-04-03T07:48:20;5.70;;;1.67;;
47219;SDS011;32961;51.936;4.788;2023-04-03T07:50:51;6.88;;;2.10;;
47219;SDS011;32961;51.936;4.788;2023-04-03T07:53:19;5.40;;;2.05;;
47219;SDS011;32961;51.936;4.788;2023-04-03T07:55:47;9.23;;;2.05;;
47219;SDS011;32961;51.936;4.788;2023-04-03T07:58:16;4.40;;;1.85;;
47219;SDS011;32961;51.936;4.788;2023-04-03T08:00:45;6.47;;;2.40;;
47219;SDS011;32961;51.936;4.788;2023-04-03T08:03:14;9.18;;;2.22;;
47219;SDS011;32961;51.936;4.788;2023-04-03T08:05:44;8.20;;;2.00;;
47219;SDS011;32961;51.936;4.788;2023-04-03T08:08:15;7.43;;;1.90;;
47219;SDS011;32961;51.936;4.788;2023-04-03T08:10:48;4.35;;;2.13;;
47219;SDS011;32961;51.936;4.788;2023-04-03T08:13:16;8.07;;;2.30;;
47219;SDS011;32961;51.936;4.788;2023-04-03T08:15:44;5.80;;;1.67;;
47219;SDS011;32961;51.936;4.788;2023-04-03T08:18:12;7.05;;;2.33;;
47219;SDS011;32961;51.936;4.788;2023-04-03T08:20:41;6.60;;;2.97;;
47219;SDS011;32961;51.936;4.788;2023-04-03T08:23:09;11.30;;;2.35;;
47219;SDS011;32961;51.936;4.788;2023-04-03T08:25:39;8.73;;;2.63;;
47219;SDS011;32961;51.936;4.788;2023-04-03T08:28:08;5.03;;;1.73;;
47219;SDS011;32961;51.936;4.788;2023-04-03T08:30:38;9.02;;;2.17;;
47219;SDS011;32961;51.936;4.788;2023-04-03T08:33:07;5.82;;;2.90;;
47219;SDS011;32961;51.936;4.788;2023-04-03T08:35:38;10.63;;;2.58;;
47219;SDS011;32961;51.936;4.788;2023-04-03T08:38:07;4.10;;;1.95;;
47219;SDS011;32961;51.936;4.788;2023-04-03T08:40:35;6.72;;;1.75;;
47219;SDS011;32961;51.936;4.788;2023-04-03T08:43:09;6.95;;;1.73;;
47219;SDS011;32961;51.936;4.788;2023-04-03T08:45:55;6.60;;;2.28;;
47219;SDS011;32961;51.936;4.788;2023-04-03T08:48:26;7.72;;;2.67;;
47219;SDS011;32961;51.936;4.788;2023-04-03T08:50:57;6.50;;;2.03;;
47219;SDS011;32961;51.936;4.788;2023-04-03T08:53:29;5.28;;;2.10;;
47219;SDS011;32961;51.936;4.788;2023-04-03T08:56:02;6.50;;;1.75;;
47219;SDS011;32961;51.936;4.788;2023-04-03T08:58:36;5.85;;;1.38;;
47219;SDS011;32961;51.936;4.788;2023-04-03T09:01:14;4.65;;;1.48;;
47219;SDS011;32961;51.936;4.788;2023-04-03T09:03:46;2.50;;;1.33;;
47219;SDS011;32961;51.936;4.788;2023-04-03T09:06:15;6.40;;;1.27;;
47219;SDS011;32961;51.936;4.788;2023-04-03T09:08:49;4.37;;;1.77;;
47219;SDS011;32961;51.936;4.788;2023-04-03T09:11:23;3.47;;;1.52;;
47219;SDS011;32961;51.936;4.788;2023-04-03T09:13:57;2.45;;;1.20;;
47219;SDS011;32961;51.936;4.788;2023-04-03T09:16:32;5.13;;;1.38;;
47219;SDS011;32961;51.936;4.788;2023-04-03T09:19:07;3.55;;;1.30;;
47219;SDS011;32961;51.936;4.788;2023-04-03T09:21:43;4.40;;;1.25;;
47219;SDS011;32961;51.936;4.788;2023-04-03T09:24:12;2.28;;;0.70;;
47219;SDS011;32961;51.936;4.788;2023-04-03T09:26:42;2.50;;;1.10;;
47219;SDS011;32961;51.936;4.788;2023-04-03T09:29:15;4.82;;;1.13;;
47219;SDS011;32961;51.936;4.788;2023-04-03T09:31:47;3.70;;;1.80;;
47219;SDS011;32961;51.936;4.788;2023-04-03T09:34:18;5.15;;;1.50;;
47219;SDS011;32961;51.936;4.788;2023-04-03T09:36:50;3.88;;;1.30;;
47219;SDS011;32961;51.936;4.788;2023-04-03T09:39:20;5.40;;;1.10;;
47219;SDS011;32961;51.936;4.788;2023-04-03T09:41:57;2.75;;;1.15;;
47219;SDS011;32961;51.936;4.788;2023-04-03T09:44:29;1.05;;;0.60;;
47219;SDS011;32961;51.936;4.788;2023-04-03T09:46:58;4.82;;;1.17;;
47219;SDS011;32961;51.936;4.788;2023-04-03T09:49:27;3.10;;;1.10;;
47219;SDS011;32961;51.936;4.788;2023-04-03T09:51:55;1.52;;;0.90;;
47219;SDS011;32961;51.936;4.788;2023-04-03T09:54:35;5.78;;;1.20;;
47219;SDS011;32961;51.936;4.788;2023-04-03T09:59:40;1.88;;;0.93;;
47219;SDS011;32961;51.936;4.788;2023-04-03T10:02:21;2.08;;;0.90;;
47219;SDS011;32961;51.936;4.788;2023-04-03T10:04:55;0.93;;;0.77;;
47219;SDS011;32961;51.936;4.788;2023-04-03T10:07:35;1.52;;;0.80;;
47219;SDS011;32961;51.936;4.788;2023-04-03T10:10:15;1.05;;;0.70;;
47219;SDS011;32961;51.936;4.788;2023-04-03T10:12:46;5.38;;;0.93;;
47219;SDS011;32961;51.936;4.788;2023-04-03T10:15:16;1.50;;;0.77;;
47219;SDS011;32961;51.936;4.788;2023-04-03T10:17:53;2.13;;;0.80;;
47219;SDS011;32961;51.936;4.788;2023-04-03T10:20:43;3.45;;;0.93;;
47219;SDS011;32961;51.936;4.788;2023-04-03T10:23:17;2.08;;;1.10;;
47219;SDS011;32961;51.936;4.788;2023-04-03T10:25:52;2.22;;;0.90;;
47219;SDS011;32961;51.936;4.788;2023-04-03T10:28:33;3.40;;;1.25;;
47219;SDS011;32961;51.936;4.788;2023-04-03T10:31:13;3.30;;;0.65;;
47219;SDS011;32961;51.936;4.788;2023-04-03T10:33:48;3.08;;;1.33;;
47219;SDS011;32961;51.936;4.788;2023-04-03T10:36:25;5.85;;;1.17;;
47219;SDS011;32961;51.936;4.788;2023-04-03T10:39:02;1.40;;;0.60;;
47219;SDS011;32961;51.936;4.788;2023-04-03T10:41:43;1.77;;;0.93;;
47219;SDS011;32961;51.936;4.788;2023-04-03T10:44:40;2.00;;;0.90;;
47219;SDS011;32961;51.936;4.788;2023-04-03T10:47:20;1.90;;;0.88;;
47219;SDS011;32961;51.936;4.788;2023-04-03T10:49:54;3.03;;;1.45;;
47219;SDS011;32961;51.936;4.788;2023-04-03T10:52:30;1.52;;;0.70;;
47219;SDS011;32961;51.936;4.788;2023-04-03T10:55:09;0.95;;;0.63;;
47219;SDS011;32961;51.936;4.788;2023-04-03T10:57:48;1.65;;;0.68;;
47219;SDS011;32961;51.936;4.788;2023-04-03T11:00:18;0.57;;;0.45;;
47219;SDS011;32961;51.936;4.788;2023-04-03T11:02:52;2.00;;;0.52;;
47219;SDS011;32961;51.936;4.788;2023-04-03T11:05:26;1.25;;;0.70;;
47219;SDS011;32961;51.936;4.788;2023-04-03T11:07:59;1.48;;;0.60;;
47219;SDS011;32961;51.936;4.788;2023-04-03T11:10:36;0.63;;;0.63;;
47219;SDS011;32961;51.936;4.788;2023-04-03T11:13:08;1.77;;;0.70;;
47219;SDS011;32961;51.936;4.788;2023-04-03T11:15:41;1.80;;;0.82;;
47219;SDS011;32961;51.936;4.788;2023-04-03T11:18:12;1.50;;;0.70;;
47219;SDS011;32961;51.936;4.788;2023-04-03T11:23:24;2.22;;;0.50;;
47219;SDS011;32961;51.936;4.788;2023-04-03T11:26:06;1.65;;;0.60;;
47219;SDS011;32961;51.936;4.788;2023-04-03T11:28:37;1.65;;;0.80;;
47219;SDS011;32961;51.936;4.788;2023-04-03T11:31:13;0.70;;;0.57;;
47219;SDS011;32961;51.936;4.788;2023-04-03T11:33:57;2.05;;;0.70;;
47219;SDS011;32961;51.936;4.788;2023-04-03T11:36:34;0.70;;;0.70;;
47219;SDS011;32961;51.936;4.788;2023-04-03T11:39:10;3.70;;;0.60;;
47219;SDS011;32961;51.936;4.788;2023-04-03T11:41:46;1.60;;;0.77;;
47219;SDS011;32961;51.936;4.788;2023-04-03T11:44:27;1.00;;;0.60;;
47219;SDS011;32961;51.936;4.788;2023-04-03T11:47:00;6.22;;;0.82;;
47219;SDS011;32961;51.936;4.788;2023-04-03T11:58:27;2.40;;;0.77;;
47219;SDS011;32961;51.936;4.788;2023-04-03T12:01:07;1.27;;;1.15;;
47219;SDS011;32961;51.936;4.788;2023-04-03T12:09:26;2.40;;;0.80;;
47219;SDS011;32961;51.936;4.788;2023-04-03T12:12:01;1.00;;;0.80;;
47219;SDS011;32961;51.936;4.788;2023-04-03T12:14:51;4.53;;;0.80;;
47219;SDS011;32961;51.936;4.788;2023-04-03T12:17:20;1.75;;;0.93;;
47219;SDS011;32961;51.936;4.788;2023-04-03T12:19:52;3.57;;;1.10;;
47219;SDS011;32961;51.936;4.788;2023-04-03T12:22:21;2.78;;;0.80;;
47219;SDS011;32961;51.936;4.788;2023-04-03T12:24:50;1.50;;;0.80;;
47219;SDS011;32961;51.936;4.788;2023-04-03T12:27:21;3.20;;;1.00;;
47219;SDS011;32961;51.936;4.788;2023-04-03T12:30:00;1.50;;;1.00;;
47219;SDS011;32961;51.936;4.788;2023-04-03T12:35:39;3.33;;;1.10;;
47219;SDS011;32961;51.936;4.788;2023-04-03T12:38:19;2.10;;;0.93;;
47219;SDS011;32961;51.936;4.788;2023-04-03T12:41:04;2.28;;;1.00;;
47219;SDS011;32961;51.936;4.788;2023-04-03T12:43:50;3.47;;;0.90;;
47219;SDS011;32961;51.936;4.788;2023-04-03T12:46:33;2.35;;;1.10;;
47219;SDS011;32961;51.936;4.788;2023-04-03T12:49:12;3.90;;;1.30;;
47219;SDS011;32961;51.936;4.788;2023-04-03T12:51:50;4.63;;;1.05;;
47219;SDS011;32961;51.936;4.788;2023-04-03T12:54:19;1.67;;;1.05;;
47219;SDS011;32961;51.936;4.788;2023-04-03T12:56:50;4.15;;;1.10;;
47219;SDS011;32961;51.936;4.788;2023-04-03T12:59:19;2.92;;;1.20;;
47219;SDS011;32961;51.936;4.788;2023-04-03T13:01:55;3.58;;;1.05;;
47219;SDS011;32961;51.936;4.788;2023-04-03T13:04:25;3.30;;;1.52;;
47219;SDS011;32961;51.936;4.788;2023-04-03T13:06:54;14.50;;;5.80;;
47219;SDS011;32961;51.936;4.788;2023-04-03T13:09:24;2.25;;;1.27;;
47219;SDS011;32961;51.936;4.788;2023-04-03T13:11:55;2.72;;;1.33;;
47219;SDS011;32961;51.936;4.788;2023-04-03T13:14:27;8.88;;;1.25;;
47219;SDS011;32961;51.936;4.788;2023-04-03T13:16:56;3.25;;;1.38;;
47219;SDS011;32961;51.936;4.788;2023-04-03T13:19:27;5.97;;;1.30;;
47219;SDS011;32961;51.936;4.788;2023-04-03T13:21:56;1.85;;;1.00;;
47219;SDS011;32961;51.936;4.788;2023-04-03T13:24:29;2.78;;;1.30;;
47219;SDS011;32961;51.936;4.788;2023-04-03T13:27:00;1.70;;;1.00;;
47219;SDS011;32961;51.936;4.788;2023-04-03T13:29:29;1.98;;;1.08;;
47219;SDS011;32961;51.936;4.788;2023-04-03T13:31:59;4.32;;;1.58;;
47219;SDS011;32961;51.936;4.788;2023-04-03T13:34:29;2.33;;;0.98;;
47219;SDS011;32961;51.936;4.788;2023-04-03T13:37:04;1.65;;;1.10;;
47219;SDS011;32961;51.936;4.788;2023-04-03T13:39:36;5.53;;;1.30;;
47219;SDS011;32961;51.936;4.788;2023-04-03T13:42:22;1.65;;;1.08;;
47219;SDS011;32961;51.936;4.788;2023-04-03T13:45:06;2.22;;;1.33;;
47219;SDS011;32961;51.936;4.788;2023-04-03T13:47:38;2.47;;;1.00;;
47219;SDS011;32961;51.936;4.788;2023-04-03T13:50:12;4.65;;;1.00;;
47219;SDS011;32961;51.936;4.788;2023-04-03T13:52:43;2.00;;;0.98;;
47219;SDS011;32961;51.936;4.788;2023-04-03T13:55:20;2.17;;;1.10;;
47219;SDS011;32961;51.936;4.788;2023-04-03T13:57:53;2.80;;;1.15;;
47219;SDS011;32961;51.936;4.788;2023-04-03T14:00:28;2.60;;;1.20;;
47219;SDS011;32961;51.936;4.788;2023-04-03T14:03:00;3.50;;;1.00;;
47219;SDS011;32961;51.936;4.788;2023-04-03T14:05:28;2.95;;;1.10;;
47219;SDS011;32961;51.936;4.788;2023-04-03T14:07:56;3.58;;;1.65;;
47219;SDS011;32961;51.936;4.788;2023-04-03T14:10:26;2.53;;;1.33;;
47219;SDS011;32961;51.936;4.788;2023-04-03T14:12:54;4.70;;;1.48;;
47219;SDS011;32961;51.936;4.788;2023-04-03T14:15:22;6.75;;;1.30;;
47219;SDS011;32961;51.936;4.788;2023-04-03T14:17:52;3.35;;;1.30;;
47219;SDS011;32961;51.936;4.788;2023-04-03T14:20:22;6.03;;;1.25;;
47219;SDS011;32961;51.936;4.788;2023-04-03T14:22:53;3.40;;;1.30;;
47219;SDS011;32961;51.936;4.788;2023-04-03T14:25:22;2.55;;;1.10;;
47219;SDS011;32961;51.936;4.788;2023-04-03T14:27:53;4.15;;;1.33;;
47219;SDS011;32961;51.936;4.788;2023-04-03T14:30:22;3.33;;;1.38;;
47219;SDS011;32961;51.936;4.788;2023-04-03T14:32:51;4.70;;;1.48;;
47219;SDS011;32961;51.936;4.788;2023-04-03T14:35:19;2.17;;;1.25;;
47219;SDS011;32961;51.936;4.788;2023-04-03T14:37:48;4.25;;;1.10;;
47219;SDS011;32961;51.936;4.788;2023-04-03T14:40:18;2.85;;;1.20;;
47219;SDS011;32961;51.936;4.788;2023-04-03T14:42:48;4.68;;;1.20;;
47219;SDS011;32961;51.936;4.788;2023-04-03T14:45:17;4.63;;;1.52;;
47219;SDS011;32961;51.936;4.788;2023-04-03T14:47:46;4.30;;;1.27;;
47219;SDS011;32961;51.936;4.788;2023-04-03T14:50:16;4.10;;;1.30;;
47219;SDS011;32961;51.936;4.788;2023-04-03T14:52:48;3.38;;;1.50;;
47219;SDS011;32961;51.936;4.788;2023-04-03T14:55:20;2.90;;;1.30;;
47219;SDS011;32961;51.936;4.788;2023-04-03T14:57:50;2.45;;;1.10;;
47219;SDS011;32961;51.936;4.788;2023-04-03T15:00:21;2.97;;;1.20;;
47219;SDS011;32961;51.936;4.788;2023-04-03T15:02:50;3.50;;;1.50;;
47219;SDS011;32961;51.936;4.788;2023-04-03T15:05:18;2.17;;;1.45;;
47219;SDS011;32961;51.936;4.788;2023-04-03T15:07:47;4.05;;;1.30;;
47219;SDS011;32961;51.936;4.788;2023-04-03T15:10:18;2.83;;;1.23;;
47219;SDS011;32961;51.936;4.788;2023-04-03T15:12:48;1.77;;;1.30;;
47219;SDS011;32961;51.936;4.788;2023-04-03T15:15:18;3.97;;;1.33;;
47219;SDS011;32961;51.936;4.788;2023-04-03T15:17:51;7.57;;;1.00;;
47219;SDS011;32961;51.936;4.788;2023-04-03T15:20:21;4.25;;;1.35;;
47219;SDS011;32961;51.936;4.788;2023-04-03T15:22:50;3.40;;;1.45;;
47219;SDS011;32961;51.936;4.788;2023-04-03T15:25:18;2.50;;;1.17;;
47219;SDS011;32961;51.936;4.788;2023-04-03T15:27:46;4.07;;;1.40;;
47219;SDS011;32961;51.936;4.788;2023-04-03T15:30:15;2.63;;;1.40;;
47219;SDS011;32961;51.936;4.788;2023-04-03T15:32:46;10.88;;;1.63;;
47219;SDS011;32961;51.936;4.788;2023-04-03T15:35:15;5.00;;;1.85;;
47219;SDS011;32961;51.936;4.788;2023-04-03T15:37:43;4.55;;;1.65;;
47219;SDS011;32961;51.936;4.788;2023-04-03T15:40:11;5.30;;;1.77;;
47219;SDS011;32961;51.936;4.788;2023-04-03T15:42:39;2.47;;;1.50;;
47219;SDS011;32961;51.936;4.788;2023-04-03T15:45:08;3.88;;;1.50;;